createdAt,value
2019-06-25T00:01:20.728Z,12.03
2019-06-25T00:03:48.009Z,11.20
2019-06-25T00:06:15.368Z,11.50
2019-06-25T00:08:42.813Z,11.47
2019-06-25T00:11:10.084Z,11.33
2019-06-25T00:13:37.394Z,11.23
2019-06-25T00:16:04.741Z,12.97
2019-06-25T00:18:32.012Z,10.37
2019-06-25T00:20:59.318Z,11.50
2019-06-25T00:23:26.594Z,15.60
2019-06-25T00:25:53.874Z,10.63
2019-06-25T00:28:21.247Z,11.43
2019-06-25T00:30:48.524Z,11.73
2019-06-25T00:33:15.796Z,11.73
2019-06-25T00:35:43.084Z,11.17
2019-06-25T00:38:10.433Z,12.40
2019-06-25T00:40:37.713Z,12.77
2019-06-25T00:43:05.032Z,11.50
2019-06-25T00:45:32.328Z,13.23
2019-06-25T00:47:59.665Z,14.87
2019-06-25T00:50:26.991Z,10.60
2019-06-25T00:52:54.314Z,12.10
2019-06-25T00:55:21.594Z,13.13
2019-06-25T00:57:48.966Z,12.10
2019-06-25T01:00:16.413Z,12.50
2019-06-25T01:02:57.536Z,12.17
2019-06-25T01:05:24.821Z,12.50
2019-06-25T01:07:52.098Z,12.03
2019-06-25T01:10:19.456Z,12.60
2019-06-25T01:12:46.725Z,12.37
2019-06-25T01:15:14.601Z,12.80
2019-06-25T01:17:42.133Z,11.33
2019-06-25T01:20:09.744Z,13.27
2019-06-25T01:22:37.155Z,12.63
2019-06-25T01:25:05.380Z,12.90
2019-06-25T01:27:32.644Z,12.17
2019-06-25T01:29:59.969Z,11.90
2019-06-25T01:32:27.248Z,12.07
2019-06-25T01:34:54.524Z,13.23
2019-06-25T01:37:21.859Z,15.00
2019-06-25T01:39:49.176Z,13.67
2019-06-25T01:42:16.453Z,13.50
2019-06-25T01:44:43.763Z,12.70
2019-06-25T01:47:11.037Z,12.73
2019-06-25T01:49:38.345Z,12.70
2019-06-25T01:52:05.693Z,13.37
2019-06-25T01:54:33.037Z,12.40
2019-06-25T01:57:00.354Z,13.33
2019-06-25T01:59:27.631Z,13.27
2019-06-25T02:01:54.905Z,13.90
2019-06-25T02:04:22.188Z,12.33
2019-06-25T02:06:49.471Z,14.30
2019-06-25T02:09:16.768Z,13.00
2019-06-25T02:11:44.096Z,13.50
2019-06-25T02:14:11.381Z,13.37
2019-06-25T02:16:38.688Z,13.83
2019-06-25T02:19:05.962Z,13.63
2019-06-25T02:21:33.247Z,13.97
2019-06-25T02:24:00.631Z,14.30
2019-06-25T02:26:28.481Z,12.10
2019-06-25T02:28:55.753Z,12.67
2019-06-25T02:31:23.062Z,16.13
2019-06-25T02:33:50.339Z,17.73
2019-06-25T02:36:17.689Z,14.20
2019-06-25T02:38:45.016Z,14.50
2019-06-25T02:41:12.293Z,18.50
2019-06-25T02:43:42.736Z,14.07
2019-06-25T02:46:08.694Z,14.13
2019-06-25T02:48:36.026Z,13.20
2019-06-25T02:51:03.413Z,17.30
2019-06-25T02:53:30.695Z,16.10
2019-06-25T02:55:57.975Z,14.10
2019-06-25T02:58:25.293Z,16.33
2019-06-25T03:00:52.565Z,17.20
2019-06-25T03:03:19.909Z,18.60
2019-06-25T03:05:47.218Z,14.27
2019-06-25T03:08:14.493Z,13.20
2019-06-25T03:10:41.778Z,14.53
2019-06-25T03:13:09.132Z,13.93
2019-06-25T03:15:36.411Z,14.60
2019-06-25T03:18:03.862Z,14.43
2019-06-25T03:20:31.209Z,14.10
2019-06-25T03:22:58.484Z,14.13
2019-06-25T03:25:25.784Z,15.30
2019-06-25T03:27:53.056Z,15.10
2019-06-25T03:30:20.402Z,15.70
2019-06-25T03:32:47.714Z,15.57
2019-06-25T03:35:15.130Z,15.90
2019-06-25T03:37:42.480Z,15.30
2019-06-25T03:40:09.869Z,16.63
2019-06-25T03:42:37.148Z,15.03
2019-06-25T03:45:07.578Z,14.43
2019-06-25T03:47:35.072Z,15.27
2019-06-25T03:50:02.421Z,16.07
2019-06-25T03:52:29.869Z,15.87
2019-06-25T03:54:57.316Z,15.60
2019-06-25T03:57:24.593Z,15.03
2019-06-25T03:59:51.864Z,17.10
2019-06-25T04:02:19.189Z,14.60
2019-06-25T04:04:46.466Z,16.20
2019-06-25T04:07:13.804Z,17.03
2019-06-25T04:09:41.109Z,15.90
2019-06-25T04:12:08.446Z,15.37
2019-06-25T04:14:35.756Z,14.30
2019-06-25T04:17:03.073Z,15.80
2019-06-25T04:19:30.347Z,15.30
2019-06-25T04:21:57.626Z,15.13
2019-06-25T04:24:24.928Z,15.73
2019-06-25T04:26:52.205Z,17.30
2019-06-25T04:29:19.480Z,17.27
2019-06-25T04:31:46.794Z,19.00
2019-06-25T04:34:14.125Z,20.57
2019-06-25T04:36:41.400Z,18.57
2019-06-25T04:39:08.728Z,18.27
2019-06-25T04:41:36.018Z,20.40
2019-06-25T04:44:03.454Z,21.33
2019-06-25T04:46:30.765Z,21.50
2019-06-25T04:48:58.041Z,21.33
2019-06-25T04:51:26.178Z,19.03
2019-06-25T04:53:53.489Z,19.13
2019-06-25T04:56:20.844Z,18.73
2019-06-25T04:58:48.116Z,18.33
2019-06-25T05:01:15.441Z,18.37
2019-06-25T05:03:42.730Z,17.63
2019-06-25T05:06:10.079Z,18.10
2019-06-25T05:08:37.394Z,21.73
2019-06-25T05:11:04.736Z,18.40
2019-06-25T05:13:32.011Z,19.03
2019-06-25T05:16:00.205Z,18.80
2019-06-25T05:18:27.556Z,18.60
2019-06-25T05:20:54.836Z,20.00
2019-06-25T05:23:22.718Z,17.83
2019-06-25T05:25:50.421Z,17.60
2019-06-25T05:28:17.700Z,17.20
2019-06-25T05:30:45.159Z,15.00
2019-06-25T05:33:12.510Z,16.33
2019-06-25T05:35:41.421Z,18.87
2019-06-25T05:38:08.716Z,16.57
2019-06-25T05:40:40.231Z,17.23
2019-06-25T05:43:05.065Z,15.73
2019-06-25T05:45:32.464Z,15.30
2019-06-25T05:47:59.752Z,15.93
2019-06-25T05:50:27.029Z,14.70
2019-06-25T05:52:54.332Z,15.80
2019-06-25T05:55:21.676Z,14.63
2019-06-25T05:57:48.961Z,21.60
2019-06-25T06:00:16.706Z,24.43
2019-06-25T06:02:43.981Z,15.07
2019-06-25T06:05:11.442Z,21.00
2019-06-25T06:07:38.850Z,21.47
2019-06-25T06:10:06.672Z,14.90
2019-06-25T06:12:33.962Z,17.63
2019-06-25T06:15:01.336Z,15.90
2019-06-25T06:17:30.152Z,15.40
2019-06-25T06:19:57.426Z,18.63
2019-06-25T06:22:24.736Z,14.67
2019-06-25T06:24:52.769Z,15.13
2019-06-25T06:27:20.097Z,20.23
2019-06-25T06:29:47.437Z,16.47
2019-06-25T06:32:14.712Z,16.43
2019-06-25T06:34:42.034Z,17.93
2019-06-25T06:37:09.380Z,19.20
2019-06-25T06:39:36.653Z,19.20
2019-06-25T06:42:04.037Z,22.70
2019-06-25T06:44:31.396Z,21.70
2019-06-25T06:46:58.791Z,16.73
2019-06-25T06:49:26.251Z,16.57
2019-06-25T06:51:53.612Z,17.60
2019-06-25T06:54:20.961Z,15.00
2019-06-25T06:56:48.260Z,14.37
2019-06-25T06:59:15.623Z,19.37
2019-06-25T07:01:42.965Z,16.80
2019-06-25T07:04:10.357Z,21.13
2019-06-25T07:06:37.766Z,15.10
2019-06-25T07:09:06.013Z,14.23
2019-06-25T07:11:33.409Z,18.07
2019-06-25T07:14:00.757Z,16.07
2019-06-25T07:16:28.497Z,14.13
2019-06-25T07:18:55.861Z,15.53
2019-06-25T07:21:23.148Z,12.43
2019-06-25T07:23:50.456Z,12.77
2019-06-25T07:26:17.896Z,13.90
2019-06-25T07:28:45.311Z,12.50
2019-06-25T07:31:12.824Z,15.33
2019-06-25T07:33:40.254Z,11.77
2019-06-25T07:36:07.597Z,12.87
2019-06-25T07:38:35.021Z,13.50
2019-06-25T07:41:02.488Z,15.83
2019-06-25T07:43:29.830Z,11.47
2019-06-25T07:45:57.248Z,12.47
2019-06-25T07:48:24.608Z,10.33
2019-06-25T07:50:52.074Z,10.33
2019-06-25T07:53:19.425Z,10.50
2019-06-25T07:55:46.952Z,10.50
2019-06-25T07:58:14.298Z,8.60
2019-06-25T08:00:41.759Z,10.70
2019-06-25T08:03:09.346Z,14.43
2019-06-25T08:05:36.661Z,10.27
2019-06-25T08:08:04.660Z,12.80
2019-06-25T08:10:31.934Z,11.07
2019-06-25T08:12:59.285Z,9.80
2019-06-25T08:15:26.644Z,10.40
2019-06-25T08:17:53.910Z,9.07
2019-06-25T08:20:21.751Z,9.30
2019-06-25T08:22:49.060Z,11.60
2019-06-25T08:25:16.402Z,10.27
2019-06-25T08:27:43.734Z,9.03
2019-06-25T08:30:11.419Z,8.63
2019-06-25T08:32:38.740Z,8.47
2019-06-25T08:35:07.188Z,7.77
2019-06-25T08:37:34.476Z,7.97
2019-06-25T08:40:18.585Z,8.37
2019-06-25T08:42:32.863Z,8.40
2019-06-25T08:45:03.135Z,14.73
2019-06-25T08:47:29.264Z,8.90
2019-06-25T08:49:56.664Z,10.07
2019-06-25T08:52:24.048Z,8.83
2019-06-25T08:54:51.373Z,12.03
2019-06-25T08:57:18.633Z,9.37
2019-06-25T08:59:46.009Z,9.03
2019-06-25T09:02:13.276Z,11.80
2019-06-25T09:04:40.548Z,8.80
2019-06-25T09:07:07.840Z,8.63
2019-06-25T09:09:35.113Z,14.40
2019-06-25T09:12:02.381Z,9.40
2019-06-25T09:14:29.698Z,10.87
2019-06-25T09:16:57.041Z,9.47
2019-06-25T09:19:24.442Z,10.00
2019-06-25T09:21:51.792Z,9.30
2019-06-25T09:24:19.133Z,9.50
2019-06-25T09:26:46.408Z,9.90
2019-06-25T09:29:13.878Z,10.33
2019-06-25T09:31:41.182Z,9.73
2019-06-25T09:34:08.529Z,8.93
2019-06-25T09:36:35.909Z,9.77
2019-06-25T09:39:04.229Z,9.60
2019-06-25T09:41:30.974Z,13.80
2019-06-25T09:44:00.694Z,8.60
2019-06-25T09:46:26.847Z,9.00
2019-06-25T09:48:54.109Z,8.77
2019-06-25T09:51:21.489Z,9.67
2019-06-25T09:53:48.804Z,9.30
2019-06-25T09:56:16.252Z,8.00
2019-06-25T09:58:43.546Z,9.53
2019-06-25T10:01:25.513Z,9.90
2019-06-25T10:03:40.033Z,10.03
2019-06-25T10:06:07.381Z,10.00
2019-06-25T10:08:34.705Z,8.40
2019-06-25T10:11:01.987Z,8.93
2019-06-25T10:13:29.281Z,9.40
2019-06-25T10:15:56.659Z,9.50
2019-06-25T10:18:24.001Z,9.27
2019-06-25T10:20:51.316Z,9.57
2019-06-25T10:23:18.694Z,12.00
2019-06-25T10:25:45.965Z,9.63
2019-06-25T10:28:25.772Z,8.60
2019-06-25T10:30:46.768Z,10.30
2019-06-25T10:33:14.082Z,8.87
2019-06-25T10:35:47.247Z,8.60
2019-06-25T10:38:10.403Z,9.60
2019-06-25T10:40:37.809Z,9.20
2019-06-25T10:43:05.112Z,10.70
2019-06-25T10:45:32.380Z,9.50
2019-06-25T10:47:59.650Z,8.47
2019-06-25T10:50:27.059Z,8.57
2019-06-25T10:52:54.370Z,13.10
2019-06-25T10:55:21.658Z,11.47
2019-06-25T10:57:49.213Z,9.10
2019-06-25T11:00:18.100Z,8.67
2019-06-25T11:02:45.442Z,8.67
2019-06-25T11:05:12.763Z,8.10
2019-06-25T11:07:40.065Z,10.57
2019-06-25T11:10:07.709Z,8.53
2019-06-25T11:12:34.974Z,8.37
2019-06-25T11:15:02.297Z,9.10
2019-06-25T11:17:29.570Z,9.07
2019-06-25T11:19:56.837Z,9.27
2019-06-25T11:22:24.128Z,12.90
2019-06-25T11:24:51.398Z,9.50
2019-06-25T11:27:18.672Z,8.10
2019-06-25T11:29:46.065Z,8.20
2019-06-25T11:32:13.475Z,9.13
2019-06-25T11:34:40.818Z,8.83
2019-06-25T11:37:08.194Z,9.17
2019-06-25T11:39:35.585Z,8.63
2019-06-25T11:42:02.985Z,9.23
2019-06-25T11:44:30.294Z,10.23
2019-06-25T11:46:57.574Z,9.60
2019-06-25T11:49:24.848Z,8.37
2019-06-25T11:51:52.263Z,9.00
2019-06-25T11:54:19.693Z,8.43
2019-06-25T11:56:46.969Z,10.33
2019-06-25T11:59:14.277Z,8.07
2019-06-25T12:01:41.723Z,8.20
2019-06-25T12:04:09.215Z,8.03
2019-06-25T12:06:52.736Z,8.60
2019-06-25T12:09:06.461Z,9.53
2019-06-25T12:11:33.782Z,9.07
2019-06-25T12:14:01.048Z,8.73
2019-06-25T12:16:28.321Z,8.70
2019-06-25T12:18:55.589Z,8.63
2019-06-25T12:21:22.856Z,8.67
2019-06-25T12:23:50.168Z,7.70
2019-06-25T12:26:17.433Z,8.50
2019-06-25T12:28:44.705Z,8.70
2019-06-25T12:31:12.013Z,9.57
2019-06-25T12:33:39.281Z,8.07
2019-06-25T12:36:06.553Z,9.27
2019-06-25T12:38:33.854Z,9.27
2019-06-25T12:41:01.138Z,8.80
2019-06-25T12:43:28.487Z,7.77
2019-06-25T12:45:55.831Z,9.17
2019-06-25T12:48:23.535Z,9.50
2019-06-25T12:50:50.988Z,9.43
2019-06-25T12:53:18.330Z,9.97
2019-06-25T12:55:45.606Z,10.07
2019-06-25T12:58:12.975Z,14.70
2019-06-25T13:00:40.262Z,9.60
2019-06-25T13:03:07.612Z,9.57
2019-06-25T13:05:34.923Z,8.97
2019-06-25T13:08:02.205Z,10.40
2019-06-25T13:10:43.140Z,8.80
2019-06-25T13:12:58.562Z,10.73
2019-06-25T13:15:25.835Z,11.73
2019-06-25T13:17:53.174Z,10.53
2019-06-25T13:20:20.633Z,9.27
2019-06-25T13:22:47.901Z,10.30
2019-06-25T13:25:15.286Z,10.30
2019-06-25T13:27:42.648Z,11.00
2019-06-25T13:30:10.490Z,11.67
2019-06-25T13:32:37.786Z,11.40
2019-06-25T13:35:06.135Z,10.33
2019-06-25T13:37:42.356Z,10.40
2019-06-25T13:40:03.002Z,12.57
2019-06-25T13:42:30.280Z,10.10
2019-06-25T13:44:57.659Z,9.53
2019-06-25T13:47:24.928Z,10.90
2019-06-25T13:49:52.323Z,10.13
2019-06-25T13:52:19.653Z,10.20
2019-06-25T13:54:46.954Z,10.10
2019-06-25T13:57:14.348Z,10.17
2019-06-25T13:59:41.678Z,10.57
2019-06-25T14:02:09.025Z,10.90
2019-06-25T14:04:36.354Z,9.93
2019-06-25T14:07:03.727Z,10.43
2019-06-25T14:09:31.000Z,11.77
2019-06-25T14:11:58.273Z,11.00
2019-06-25T14:14:25.564Z,11.33
2019-06-25T14:16:52.909Z,10.10
2019-06-25T14:19:20.225Z,10.40
2019-06-25T14:21:47.570Z,12.03
2019-06-25T14:24:14.842Z,10.50
2019-06-25T14:26:42.117Z,10.17
2019-06-25T14:29:09.502Z,9.70
2019-06-25T14:31:36.857Z,10.17
2019-06-25T14:34:04.407Z,10.70
2019-06-25T14:36:31.786Z,10.30
2019-06-25T14:38:59.106Z,10.67
2019-06-25T14:41:26.380Z,10.43
2019-06-25T14:43:53.727Z,10.00
2019-06-25T14:46:21.008Z,13.63
2019-06-25T14:48:48.316Z,10.83
2019-06-25T14:51:15.724Z,10.07
2019-06-25T14:53:43.029Z,10.40
2019-06-25T14:56:10.415Z,10.43
2019-06-25T14:58:37.760Z,10.60
2019-06-25T15:01:05.059Z,11.37
2019-06-25T15:03:32.325Z,10.27
2019-06-25T15:05:59.673Z,10.90
2019-06-25T15:08:30.896Z,10.40
2019-06-25T15:10:55.969Z,9.30
2019-06-25T15:13:23.243Z,10.53
2019-06-25T15:15:50.540Z,10.60
2019-06-25T15:18:17.904Z,10.30
2019-06-25T15:20:45.198Z,9.97
2019-06-25T15:23:12.601Z,10.33
2019-06-25T15:25:39.898Z,10.73
2019-06-25T15:28:07.283Z,10.63
2019-06-25T15:30:34.722Z,12.37
2019-06-25T15:33:02.022Z,11.97
2019-06-25T15:35:29.338Z,10.00
2019-06-25T15:37:56.669Z,10.13
2019-06-25T15:40:23.941Z,9.40
2019-06-25T15:42:51.304Z,9.30
2019-06-25T15:45:18.645Z,10.40
2019-06-25T15:47:46.038Z,9.77
2019-06-25T15:50:13.361Z,9.50
2019-06-25T15:52:40.675Z,11.50
2019-06-25T15:55:08.717Z,9.63
2019-06-25T15:57:36.109Z,9.77
2019-06-25T16:00:04.985Z,10.87
2019-06-25T16:02:32.257Z,10.90
2019-06-25T16:04:59.567Z,10.60
2019-06-25T16:07:28.807Z,10.67
2019-06-25T16:09:55.849Z,10.60
2019-06-25T16:12:23.222Z,10.53
2019-06-25T16:14:50.489Z,9.43
2019-06-25T16:17:17.765Z,18.83
2019-06-25T16:19:45.124Z,9.97
2019-06-25T16:22:12.397Z,9.80
2019-06-25T16:24:39.678Z,11.60
2019-06-25T16:27:06.981Z,13.20
2019-06-25T16:29:34.249Z,10.10
2019-06-25T16:32:01.599Z,10.77
2019-06-25T16:34:28.913Z,12.80
2019-06-25T16:36:56.262Z,10.40
2019-06-25T16:39:23.542Z,10.57
2019-06-25T16:41:50.914Z,11.50
2019-06-25T16:44:18.189Z,10.30
2019-06-25T16:46:45.462Z,10.13
2019-06-25T16:49:12.766Z,11.07
2019-06-25T16:51:40.045Z,12.20
2019-06-25T16:54:07.442Z,11.77
2019-06-25T16:56:34.738Z,12.50
2019-06-25T16:59:02.080Z,12.00
2019-06-25T17:01:29.449Z,11.53
2019-06-25T17:03:56.759Z,11.17
2019-06-25T17:06:24.107Z,12.63
2019-06-25T17:08:52.677Z,12.10
2019-06-25T17:11:20.156Z,12.33
2019-06-25T17:13:47.520Z,13.67
2019-06-25T17:16:23.598Z,12.63
2019-06-25T17:18:43.890Z,13.30
2019-06-25T17:21:11.170Z,12.97
2019-06-25T17:23:38.471Z,12.77
2019-06-25T17:26:05.767Z,11.87
2019-06-25T17:28:33.124Z,13.23
2019-06-25T17:31:00.405Z,13.10
2019-06-25T17:33:27.729Z,13.90
2019-06-25T17:35:55.121Z,15.50
2019-06-25T17:38:22.389Z,13.53
2019-06-25T17:40:49.694Z,14.47
2019-06-25T17:43:16.969Z,12.97
2019-06-25T17:45:44.253Z,14.60
2019-06-25T17:48:14.519Z,15.13
2019-06-25T17:50:40.648Z,14.80
2019-06-25T17:53:07.935Z,14.60
2019-06-25T17:55:36.081Z,14.00
2019-06-25T17:58:03.432Z,14.33
2019-06-25T18:00:30.938Z,14.50
2019-06-25T18:02:58.245Z,13.33
2019-06-25T18:05:25.531Z,14.13
2019-06-25T18:07:52.995Z,13.87
2019-06-25T18:10:20.303Z,14.70
2019-06-25T18:12:47.580Z,14.40
2019-06-25T18:15:14.930Z,14.17
2019-06-25T18:17:42.454Z,15.13
2019-06-25T18:20:09.997Z,14.90
2019-06-25T18:22:37.337Z,16.47
2019-06-25T18:25:05.610Z,14.30
2019-06-25T18:27:32.885Z,16.47
2019-06-25T18:30:00.233Z,17.47
2019-06-25T18:32:27.533Z,15.17
2019-06-25T18:34:54.809Z,15.83
2019-06-25T18:37:22.090Z,16.17
2019-06-25T18:39:49.405Z,15.27
2019-06-25T18:42:16.680Z,15.77
2019-06-25T18:44:44.026Z,15.20
2019-06-25T18:47:11.333Z,15.97
2019-06-25T18:49:39.339Z,15.77
2019-06-25T18:52:06.762Z,15.80
2019-06-25T18:54:34.041Z,15.60
2019-06-25T18:57:01.325Z,15.13
2019-06-25T18:59:28.725Z,15.53
2019-06-25T19:01:56.090Z,17.10
2019-06-25T19:04:23.371Z,16.77
2019-06-25T19:06:50.677Z,16.03
2019-06-25T19:09:17.953Z,16.60
2019-06-25T19:11:45.302Z,16.20
2019-06-25T19:14:12.616Z,16.47
2019-06-25T19:16:39.889Z,16.93
2019-06-25T19:19:07.166Z,17.43
2019-06-25T19:21:34.520Z,16.70
2019-06-25T19:24:01.918Z,17.00
2019-06-25T19:26:29.362Z,16.73
2019-06-25T19:28:56.771Z,17.50
2019-06-25T19:31:24.109Z,17.50
2019-06-25T19:33:51.397Z,16.70
2019-06-25T19:36:18.977Z,17.33
2019-06-25T19:38:46.249Z,18.10
2019-06-25T19:41:13.521Z,16.90
2019-06-25T19:43:40.849Z,17.20
2019-06-25T19:46:08.130Z,17.50
2019-06-25T19:48:35.404Z,16.97
2019-06-25T19:51:02.790Z,17.07
2019-06-25T19:53:30.092Z,16.03
2019-06-25T19:55:57.429Z,16.00
2019-06-25T19:58:24.734Z,18.90
2019-06-25T20:00:52.093Z,16.70
2019-06-25T20:03:19.384Z,18.40
2019-06-25T20:05:46.875Z,17.33
2019-06-25T20:08:14.216Z,16.30
2019-06-25T20:10:42.396Z,16.53
2019-06-25T20:13:09.785Z,16.83
2019-06-25T20:15:37.074Z,17.87
2019-06-25T20:18:04.361Z,16.30
2019-06-25T20:20:31.908Z,19.33
2019-06-25T20:22:59.220Z,17.97
2019-06-25T20:25:26.484Z,18.23
2019-06-25T20:27:53.787Z,16.33
2019-06-25T20:30:21.149Z,20.27
2019-06-25T20:32:48.502Z,15.97
2019-06-25T20:35:15.819Z,17.63
2019-06-25T20:37:43.101Z,19.03
2019-06-25T20:40:11.245Z,16.13
2019-06-25T20:42:38.698Z,18.30
2019-06-25T20:45:12.072Z,17.47
2019-06-25T20:47:38.789Z,17.80
2019-06-25T20:50:06.152Z,15.60
2019-06-25T20:52:36.497Z,18.17
2019-06-25T20:55:04.922Z,17.33
2019-06-25T20:57:33.531Z,18.87
2019-06-25T21:00:01.083Z,18.40
2019-06-25T21:02:28.433Z,18.43
2019-06-25T21:04:55.932Z,18.30
2019-06-25T21:07:25.829Z,18.33
2019-06-25T21:09:52.809Z,17.00
2019-06-25T21:12:20.224Z,17.90
2019-06-25T21:14:47.578Z,19.20
2019-06-25T21:17:14.873Z,18.27
2019-06-25T21:19:43.424Z,18.30
2019-06-25T21:22:11.009Z,18.97
2019-06-25T21:24:38.333Z,18.50
2019-06-25T21:27:05.869Z,18.40
2019-06-25T21:29:33.682Z,19.47
2019-06-25T21:32:01.017Z,18.27
2019-06-25T21:34:28.389Z,19.37
2019-06-25T21:36:55.677Z,19.13
2019-06-25T21:39:22.973Z,18.50
2019-06-25T21:42:03.837Z,22.87
2019-06-25T21:44:19.364Z,19.00
2019-06-25T21:46:46.781Z,18.80
2019-06-25T21:49:14.162Z,19.23
2019-06-25T21:51:41.445Z,20.03
2019-06-25T21:54:08.734Z,21.10
2019-06-25T21:56:36.120Z,20.87
2019-06-25T21:59:03.405Z,19.00
2019-06-25T22:01:33.137Z,19.23
2019-06-25T22:04:00.500Z,19.20
2019-06-25T22:06:29.035Z,19.67
2019-06-25T22:08:56.332Z,20.60
2019-06-25T22:11:23.718Z,20.20
2019-06-25T22:13:51.014Z,18.60
2019-06-25T22:16:18.398Z,20.03
2019-06-25T22:18:45.800Z,19.37
2019-06-25T22:21:13.364Z,20.07
2019-06-25T22:23:40.823Z,19.97
2019-06-25T22:26:08.217Z,20.00
2019-06-25T22:28:35.565Z,20.57
2019-06-25T22:31:03.288Z,20.40
2019-06-25T22:33:30.683Z,20.73
2019-06-25T22:35:58.041Z,21.53
2019-06-25T22:38:25.330Z,19.90
2019-06-25T22:40:52.709Z,20.40
2019-06-25T22:43:20.097Z,20.23
2019-06-25T22:45:47.388Z,19.03
2019-06-25T22:48:14.707Z,22.23
2019-06-25T22:50:46.729Z,20.00
2019-06-25T22:53:11.051Z,20.40
2019-06-25T22:55:38.402Z,19.97
2019-06-25T22:58:05.829Z,21.33
2019-06-25T23:00:33.152Z,22.37
2019-06-25T23:03:00.613Z,21.73
2019-06-25T23:05:28.266Z,21.83
2019-06-25T23:07:55.677Z,21.70
2019-06-25T23:10:23.118Z,21.90
2019-06-25T23:12:54.526Z,21.67
2019-06-25T23:15:19.436Z,20.03
2019-06-25T23:17:47.150Z,20.10
2019-06-25T23:20:14.693Z,22.73
2019-06-25T23:22:41.977Z,21.43
2019-06-25T23:25:12.217Z,22.67
2019-06-25T23:27:38.373Z,21.20
2019-06-25T23:30:06.118Z,21.80
2019-06-25T23:32:33.416Z,22.70
2019-06-25T23:35:01.051Z,20.60
2019-06-25T23:37:28.412Z,20.80
2019-06-25T23:39:55.752Z,23.87
2019-06-25T23:42:23.222Z,21.87
2019-06-25T23:44:50.498Z,22.30
2019-06-25T23:47:17.980Z,21.43
2019-06-25T23:49:45.317Z,22.40
2019-06-25T23:52:12.669Z,24.23
2019-06-25T23:54:40.657Z,25.07
2019-06-25T23:57:07.937Z,21.93
2019-06-25T23:59:35.229Z,23.40
